Waldrip, Texas
Current Conditions -  °F | °C
As of 12:15 PM on Tuesday 21 Oct 2014 (Local Time) from KBBD Reporting Station
Few Clouds Few Clouds  
Wind Chill: 75°   Ceiling: Unl
Heat Index: 75°   Visibility: 10mi
Dew Point: 54°   Wind: 7mph
Humidity: 47%   Direction: 100°E
Pressure: 30.11"   Gusts: NA
Location:  31.3366°N, 99.383°W
Report Text: KBBD 211715Z AUTO 10006KT 10SM FEW040 24/12 A3011 RMK
Loading
Personal Weather Stations






























Interactive Weather Map
Tropical Storm Tracking
New forecast layout! Learn more

10-Day Weather Forecast

Advertisements
Track Severe Weather on mobile